createdAt,value
2022-11-30T00:01:22.513Z,19.65
2022-11-30T00:03:53.257Z,19.40
2022-11-30T00:06:23.220Z,18.90
2022-11-30T00:08:54.048Z,17.13
2022-11-30T00:11:21.880Z,20.40
2022-11-30T00:13:49.130Z,19.77
2022-11-30T00:16:16.055Z,20.85
2022-11-30T00:18:43.571Z,19.15
2022-11-30T00:21:13.739Z,21.73
2022-11-30T00:23:44.300Z,22.48
2022-11-30T00:26:14.464Z,23.15
2022-11-30T00:28:42.005Z,21.98
2022-11-30T00:31:12.785Z,18.50
2022-11-30T00:33:40.487Z,22.52
2022-11-30T00:36:12.086Z,18.77
2022-11-30T00:38:39.427Z,21.90
2022-11-30T00:41:06.957Z,21.52
2022-11-30T00:43:33.853Z,23.38
2022-11-30T00:46:00.684Z,23.25
2022-11-30T00:48:27.716Z,21.73
2022-11-30T00:50:54.647Z,21.30
2022-11-30T00:53:21.900Z,22.23
2022-11-30T00:55:49.157Z,20.17
2022-11-30T00:58:16.973Z,21.30
2022-11-30T01:00:44.505Z,19.02
2022-11-30T01:03:11.999Z,21.95
2022-11-30T01:05:39.822Z,20.40
2022-11-30T01:08:08.701Z,21.38
2022-11-30T01:10:38.235Z,20.95
2022-11-30T01:13:05.625Z,19.88
2022-11-30T01:15:38.532Z,18.52
2022-11-30T01:18:05.748Z,20.50
2022-11-30T01:20:32.783Z,21.60
2022-11-30T01:22:59.703Z,21.30
2022-11-30T01:25:26.666Z,19.40
2022-11-30T01:27:53.409Z,17.60
2022-11-30T01:30:20.326Z,19.55
2022-11-30T01:32:47.249Z,19.88
2022-11-30T01:35:14.172Z,22.38
2022-11-30T01:37:40.998Z,23.13
2022-11-30T01:40:09.897Z,20.65
2022-11-30T01:42:37.923Z,22.13
2022-11-30T01:45:07.251Z,19.38
2022-11-30T01:47:46.725Z,21.75
2022-11-30T01:50:29.379Z,22.80
2022-11-30T01:52:57.717Z,17.92
2022-11-30T01:55:35.149Z,22.25
2022-11-30T01:58:15.382Z,22.55
2022-11-30T02:00:47.012Z,22.33
2022-11-30T02:03:30.507Z,22.35
2022-11-30T02:05:57.969Z,20.77
2022-11-30T02:08:25.250Z,22.63
2022-11-30T02:11:00.848Z,23.23
2022-11-30T02:13:56.178Z,24.08
2022-11-30T02:16:43.395Z,25.42
2022-11-30T02:19:51.941Z,22.27
2022-11-30T02:22:42.182Z,22.50
2022-11-30T02:25:22.483Z,23.70
2022-11-30T02:28:30.096Z,22.10
2022-11-30T02:31:02.345Z,23.85
2022-11-30T02:33:32.273Z,21.90
2022-11-30T02:36:00.542Z,23.67
2022-11-30T02:38:28.365Z,21.58
2022-11-30T02:40:55.502Z,21.50
2022-11-30T02:43:26.484Z,21.13
2022-11-30T02:46:06.393Z,23.83
2022-11-30T02:48:53.796Z,22.15
2022-11-30T02:51:24.762Z,20.35
2022-11-30T02:53:52.494Z,24.38
2022-11-30T02:56:22.036Z,21.67
2022-11-30T02:58:48.870Z,21.00
2022-11-30T03:01:15.817Z,20.17
2022-11-30T03:03:42.747Z,23.80
2022-11-30T03:06:09.487Z,21.42
2022-11-30T03:08:36.264Z,19.08
2022-11-30T03:11:04.985Z,19.73
2022-11-30T03:13:33.383Z,19.90
2022-11-30T03:16:10.807Z,17.95
2022-11-30T03:18:38.543Z,22.83
2022-11-30T03:21:07.710Z,20.40
2022-11-30T03:23:35.503Z,20.92
2022-11-30T03:26:02.452Z,23.70
2022-11-30T03:28:29.262Z,16.55
2022-11-30T03:30:57.482Z,19.92
2022-11-30T03:33:24.995Z,20.08
2022-11-30T03:36:03.564Z,21.38
2022-11-30T03:38:30.751Z,23.27
2022-11-30T03:41:14.285Z,16.80
2022-11-30T03:43:41.109Z,20.77
2022-11-30T03:46:08.411Z,20.70
2022-11-30T03:48:36.185Z,19.40
2022-11-30T03:51:04.668Z,21.52
2022-11-30T03:53:32.085Z,21.35
2022-11-30T03:56:02.009Z,22.90
2022-11-30T03:58:29.698Z,22.30
2022-11-30T04:01:00.870Z,19.60
2022-11-30T04:03:27.928Z,22.63
2022-11-30T04:05:54.844Z,18.15
2022-11-30T04:08:21.601Z,18.40
2022-11-30T04:10:52.250Z,21.85
2022-11-30T04:13:20.495Z,18.73
2022-11-30T04:15:49.150Z,19.75
2022-11-30T04:18:17.225Z,21.08
2022-11-30T04:20:44.116Z,20.25
2022-11-30T04:23:12.036Z,19.65
2022-11-30T04:25:42.712Z,17.63
2022-11-30T04:28:10.451Z,21.23
2022-11-30T04:30:38.094Z,16.00
2022-11-30T04:33:05.305Z,17.90
2022-11-30T04:35:33.041Z,18.33
2022-11-30T04:38:01.065Z,20.40
2022-11-30T04:40:27.939Z,22.00
2022-11-30T04:42:54.944Z,20.67
2022-11-30T04:45:21.785Z,15.20
2022-11-30T04:47:48.564Z,18.13
2022-11-30T04:50:15.437Z,20.00
2022-11-30T04:52:42.184Z,18.42
2022-11-30T04:55:09.375Z,21.15
2022-11-30T04:57:36.349Z,21.25
2022-11-30T05:00:05.254Z,21.17
2022-11-30T05:02:32.301Z,19.80
2022-11-30T05:04:59.250Z,17.02
2022-11-30T05:07:26.228Z,22.27
2022-11-30T05:09:53.857Z,20.85
2022-11-30T05:12:20.647Z,19.23
2022-11-30T05:14:47.541Z,19.30
2022-11-30T05:17:14.477Z,20.77
2022-11-30T05:19:41.240Z,20.85
2022-11-30T05:22:08.136Z,18.50
2022-11-30T05:24:34.911Z,20.73
2022-11-30T05:27:01.927Z,20.20
2022-11-30T05:29:28.689Z,17.92
2022-11-30T05:31:55.460Z,21.05
2022-11-30T05:34:22.230Z,19.50
2022-11-30T05:36:48.990Z,21.23
2022-11-30T05:39:15.793Z,19.05
2022-11-30T05:41:42.582Z,16.42
2022-11-30T05:44:09.758Z,16.05
2022-11-30T05:46:40.989Z,19.02
2022-11-30T05:49:08.052Z,18.52
2022-11-30T05:51:34.806Z,18.63
2022-11-30T05:54:01.581Z,20.50
2022-11-30T05:56:28.361Z,17.25
2022-11-30T05:58:55.267Z,18.27
2022-11-30T06:01:26.703Z,19.13
2022-11-30T06:03:54.034Z,16.65
2022-11-30T06:06:21.457Z,17.13
2022-11-30T06:08:49.405Z,19.35
2022-11-30T06:11:17.216Z,19.25
2022-11-30T06:13:44.343Z,21.35
2022-11-30T06:16:11.360Z,21.13
2022-11-30T06:18:38.763Z,20.13
2022-11-30T06:21:11.334Z,21.80
2022-11-30T06:23:38.502Z,19.90
2022-11-30T06:26:07.867Z,19.60
2022-11-30T06:28:35.287Z,19.25
2022-11-30T06:31:04.411Z,20.98
2022-11-30T06:33:31.291Z,17.45
2022-11-30T06:35:58.412Z,22.10
2022-11-30T06:38:25.939Z,21.27
2022-11-30T06:40:53.682Z,20.42
2022-11-30T06:43:20.770Z,19.83
2022-11-30T06:45:47.929Z,16.42
2022-11-30T06:48:14.891Z,21.70
2022-11-30T06:50:48.434Z,17.38
2022-11-30T06:53:16.818Z,22.50
2022-11-30T06:55:43.569Z,18.20
2022-11-30T06:58:11.071Z,20.15
2022-11-30T07:00:39.201Z,18.40
2022-11-30T07:03:06.580Z,18.63
2022-11-30T07:05:39.892Z,16.85
2022-11-30T07:08:06.788Z,19.73
2022-11-30T07:10:33.720Z,15.57
2022-11-30T07:13:00.660Z,18.42
2022-11-30T07:15:27.628Z,17.63
2022-11-30T07:17:54.372Z,17.75
2022-11-30T07:20:21.183Z,17.70
2022-11-30T07:22:47.945Z,21.20
2022-11-30T07:25:33.279Z,22.27
2022-11-30T07:28:00.062Z,21.60
2022-11-30T07:30:26.832Z,19.20
2022-11-30T07:32:53.646Z,17.50
2022-11-30T07:35:20.410Z,19.48
2022-11-30T07:37:47.205Z,19.33
2022-11-30T07:40:14.017Z,15.35
2022-11-30T07:42:40.990Z,18.02
2022-11-30T07:45:08.566Z,18.17
2022-11-30T07:47:36.019Z,17.35
2022-11-30T07:50:02.824Z,17.05
2022-11-30T07:52:31.217Z,18.65
2022-11-30T07:54:58.337Z,17.15
2022-11-30T07:57:25.423Z,15.23
2022-11-30T07:59:52.244Z,16.38
2022-11-30T08:02:19.091Z,18.85
2022-11-30T08:04:46.480Z,17.73
2022-11-30T08:07:13.625Z,16.10
2022-11-30T08:09:40.490Z,17.80
2022-11-30T08:12:07.950Z,17.90
2022-11-30T08:14:50.439Z,17.90
2022-11-30T08:17:21.781Z,13.73
2022-11-30T08:19:48.557Z,17.80
2022-11-30T08:22:15.510Z,18.25
2022-11-30T08:24:42.424Z,14.00
2022-11-30T08:27:09.172Z,16.70
2022-11-30T08:29:35.921Z,17.27
2022-11-30T08:32:02.894Z,14.52
2022-11-30T08:34:29.879Z,18.40
2022-11-30T08:36:56.624Z,18.98
2022-11-30T08:39:23.456Z,18.10
2022-11-30T08:41:52.047Z,16.90
2022-11-30T08:44:19.428Z,17.38
2022-11-30T08:46:53.460Z,16.92
2022-11-30T08:49:22.947Z,17.80
2022-11-30T08:52:16.481Z,18.40
2022-11-30T08:54:42.761Z,15.35
2022-11-30T08:57:09.649Z,15.80
2022-11-30T08:59:36.968Z,14.77
2022-11-30T09:02:03.989Z,18.52
2022-11-30T09:04:30.990Z,18.60
2022-11-30T09:06:59.186Z,17.90
2022-11-30T09:09:26.297Z,18.33
2022-11-30T09:11:53.113Z,12.20
2022-11-30T09:14:19.906Z,18.02
2022-11-30T09:16:46.692Z,16.88
2022-11-30T09:19:13.450Z,16.73
2022-11-30T09:21:40.262Z,16.88
2022-11-30T09:24:07.476Z,15.48
2022-11-30T09:26:34.217Z,18.63
2022-11-30T09:29:01.020Z,16.75
2022-11-30T09:31:28.263Z,18.58
2022-11-30T09:33:58.817Z,18.80
2022-11-30T09:36:27.258Z,17.60
2022-11-30T09:38:56.629Z,19.17
2022-11-30T09:42:00.899Z,15.05
2022-11-30T09:44:51.068Z,16.75
2022-11-30T09:47:39.418Z,17.27
2022-11-30T09:50:20.253Z,18.42
2022-11-30T09:52:55.742Z,14.10
2022-11-30T09:55:33.899Z,17.83
2022-11-30T09:58:04.273Z,15.40
2022-11-30T10:00:31.888Z,16.95
2022-11-30T10:03:03.585Z,17.60
2022-11-30T10:06:09.049Z,17.15
2022-11-30T10:09:09.569Z,15.85
2022-11-30T10:12:02.193Z,16.00
2022-11-30T10:15:05.623Z,13.23
2022-11-30T10:17:55.693Z,14.35
2022-11-30T10:20:54.458Z,14.07
2022-11-30T10:23:32.766Z,15.10
2022-11-30T10:26:10.515Z,16.27
2022-11-30T10:28:51.021Z,12.48
2022-11-30T10:31:21.001Z,14.45
2022-11-30T10:33:53.183Z,18.25
2022-11-30T10:36:39.622Z,11.90
2022-11-30T10:39:27.242Z,22.52
2022-11-30T10:42:04.598Z,18.98
2022-11-30T10:44:39.792Z,20.63
2022-11-30T10:47:27.117Z,18.25
2022-11-30T10:49:53.957Z,15.00
2022-11-30T10:52:29.878Z,16.80
2022-11-30T10:55:03.761Z,16.73
2022-11-30T10:57:32.518Z,18.33
2022-11-30T11:00:05.529Z,18.52
2022-11-30T11:05:19.530Z,18.63
2022-11-30T11:08:04.474Z,18.30
2022-11-30T11:10:43.670Z,17.70
2022-11-30T11:13:35.180Z,26.55
2022-11-30T11:16:04.598Z,16.02
2022-11-30T11:18:36.816Z,15.73
2022-11-30T11:21:19.613Z,20.33
2022-11-30T11:23:50.318Z,19.92
2022-11-30T11:26:26.584Z,19.80
2022-11-30T11:28:56.071Z,17.05
2022-11-30T11:31:36.556Z,16.60
2022-11-30T11:34:05.486Z,16.80
2022-11-30T11:36:38.415Z,19.15
2022-11-30T11:39:26.030Z,16.45
2022-11-30T11:41:53.107Z,15.55
2022-11-30T11:44:22.836Z,16.65
2022-11-30T11:46:55.582Z,16.25
2022-11-30T11:49:50.749Z,14.70
2022-11-30T11:52:18.332Z,13.10
2022-11-30T11:55:01.300Z,15.88
2022-11-30T11:57:58.836Z,16.77
2022-11-30T12:00:26.337Z,16.52
2022-11-30T12:03:04.805Z,13.05
2022-11-30T12:05:37.574Z,20.10
2022-11-30T12:08:12.946Z,16.55
2022-11-30T12:11:13.823Z,17.10
2022-11-30T12:13:44.067Z,17.25
2022-11-30T12:16:17.039Z,25.17
2022-11-30T12:22:03.670Z,15.13
2022-11-30T12:24:48.732Z,15.23
2022-11-30T12:27:59.260Z,16.52
2022-11-30T12:30:44.495Z,14.35
2022-11-30T12:33:37.951Z,15.45
2022-11-30T12:36:22.549Z,14.18
2022-11-30T12:39:01.068Z,14.40
2022-11-30T12:42:07.816Z,18.30
2022-11-30T12:44:59.609Z,12.90
2022-11-30T12:47:41.287Z,15.95
2022-11-30T12:50:35.181Z,15.25
2022-11-30T12:53:20.040Z,15.98
2022-11-30T12:56:23.724Z,15.27
2022-11-30T12:59:35.288Z,15.40
2022-11-30T13:02:48.983Z,13.43
2022-11-30T13:05:35.949Z,14.82
2022-11-30T13:08:07.854Z,15.45
2022-11-30T13:10:45.021Z,16.60
2022-11-30T13:13:26.766Z,13.43
2022-11-30T13:15:54.346Z,17.08
2022-11-30T13:18:23.732Z,14.85
2022-11-30T13:21:06.439Z,15.63
2022-11-30T13:23:47.713Z,14.35
2022-11-30T13:26:57.484Z,14.82
2022-11-30T13:29:50.028Z,16.38
2022-11-30T13:32:55.211Z,11.43
2022-11-30T13:35:29.833Z,11.40
2022-11-30T13:38:35.132Z,15.27
2022-11-30T13:40:59.822Z,16.60
2022-11-30T13:43:35.634Z,17.98
2022-11-30T13:46:18.903Z,17.73
2022-11-30T13:51:34.030Z,18.85
2022-11-30T13:54:48.224Z,16.90
2022-11-30T13:57:27.536Z,16.88
2022-11-30T14:00:03.576Z,15.82
2022-11-30T14:02:41.824Z,17.00
2022-11-30T14:05:17.547Z,20.17
2022-11-30T14:08:07.092Z,17.13
2022-11-30T14:10:36.439Z,17.20
2022-11-30T14:13:10.455Z,16.92
2022-11-30T14:15:41.623Z,17.30
2022-11-30T14:18:08.312Z,16.77
2022-11-30T14:20:45.087Z,15.27
2022-11-30T14:23:17.449Z,16.98
2022-11-30T14:25:54.660Z,14.25
2022-11-30T14:28:26.008Z,20.27
2022-11-30T14:30:55.878Z,18.60
2022-11-30T14:33:55.108Z,18.50
2022-11-30T14:36:26.710Z,16.42
2022-11-30T14:38:53.663Z,20.52
2022-11-30T14:41:28.438Z,25.23
2022-11-30T14:44:14.273Z,23.23
2022-11-30T14:46:41.220Z,20.73
2022-11-30T14:49:16.754Z,20.23
2022-11-30T14:51:52.261Z,19.55
2022-11-30T14:55:07.109Z,18.63
2022-11-30T14:58:04.011Z,19.23
2022-11-30T15:00:39.742Z,19.10
2022-11-30T15:03:29.311Z,21.50
2022-11-30T15:06:03.398Z,19.90
2022-11-30T15:08:38.968Z,17.13
2022-11-30T15:11:09.883Z,15.23
2022-11-30T15:13:53.922Z,13.10
2022-11-30T15:16:25.094Z,15.40
2022-11-30T15:18:54.449Z,13.20
2022-11-30T15:21:30.735Z,13.77
2022-11-30T15:24:01.124Z,13.43
2022-11-30T15:26:58.384Z,16.73
2022-11-30T15:29:31.867Z,16.63
2022-11-30T15:32:02.140Z,13.07
2022-11-30T15:34:35.936Z,14.38
2022-11-30T15:37:03.196Z,13.18
2022-11-30T15:39:30.476Z,17.00
2022-11-30T15:42:03.468Z,20.65
2022-11-30T15:47:02.513Z,15.80
2022-11-30T15:49:32.176Z,15.20
2022-11-30T15:52:16.984Z,17.13
2022-11-30T15:54:57.520Z,13.15
2022-11-30T15:57:26.920Z,15.70
2022-11-30T16:00:23.683Z,19.00
2022-11-30T16:03:09.970Z,15.73
2022-11-30T16:05:39.533Z,16.27
2022-11-30T16:08:15.854Z,11.23
2022-11-30T16:10:43.725Z,18.75
2022-11-30T16:13:15.681Z,19.90
2022-11-30T16:15:48.651Z,15.23
2022-11-30T16:18:26.223Z,15.75
2022-11-30T16:21:03.495Z,16.92
2022-11-30T16:23:33.886Z,14.07
2022-11-30T16:26:00.734Z,16.90
2022-11-30T16:28:27.595Z,13.88
2022-11-30T16:30:59.936Z,14.38
2022-11-30T16:33:27.759Z,12.63
2022-11-30T16:36:08.370Z,15.90
2022-11-30T16:38:35.250Z,17.30
2022-11-30T16:41:24.236Z,16.88
2022-11-30T16:43:53.778Z,14.65
2022-11-30T16:46:26.842Z,15.27
2022-11-30T16:51:28.526Z,17.15
2022-11-30T16:53:56.103Z,19.33
2022-11-30T16:56:23.626Z,17.45
2022-11-30T16:58:50.688Z,19.02
2022-11-30T17:01:35.717Z,15.93
2022-11-30T17:04:24.600Z,17.90
2022-11-30T17:06:57.158Z,17.60
2022-11-30T17:09:29.793Z,26.95
2022-11-30T17:11:56.606Z,20.02
2022-11-30T17:14:23.353Z,24.40
2022-11-30T17:16:50.240Z,17.85
2022-11-30T17:19:17.095Z,15.73
2022-11-30T17:21:44.677Z,15.93
2022-11-30T17:24:12.607Z,14.57
2022-11-30T17:26:39.517Z,17.05
2022-11-30T17:29:06.555Z,15.15
2022-11-30T17:31:33.982Z,15.95
2022-11-30T17:34:00.751Z,15.95
2022-11-30T17:36:29.286Z,15.77
2022-11-30T17:38:56.631Z,14.88
2022-11-30T17:41:23.514Z,13.65
2022-11-30T17:43:50.434Z,17.90
2022-11-30T17:46:18.590Z,16.38
2022-11-30T17:48:45.759Z,16.63
2022-11-30T17:51:12.882Z,14.27
2022-11-30T17:53:41.549Z,16.17
2022-11-30T17:56:14.804Z,16.90
2022-11-30T17:58:44.537Z,15.27
2022-11-30T18:01:26.660Z,16.83
2022-11-30T18:03:55.444Z,15.98
2022-11-30T18:06:22.591Z,17.65
2022-11-30T18:08:49.468Z,16.90
2022-11-30T18:11:22.616Z,19.08
2022-11-30T18:13:53.293Z,21.10
2022-11-30T18:16:21.680Z,17.92
2022-11-30T18:18:49.033Z,18.35
2022-11-30T18:21:19.403Z,16.65
2022-11-30T18:23:47.092Z,19.55
2022-11-30T18:26:18.383Z,20.95
2022-11-30T18:28:46.051Z,23.15
2022-11-30T18:31:13.294Z,20.48
2022-11-30T18:33:40.297Z,15.80
2022-11-30T18:36:07.961Z,16.75
2022-11-30T18:38:38.508Z,15.50
2022-11-30T18:41:06.429Z,14.70
2022-11-30T18:43:34.179Z,14.80
2022-11-30T18:46:08.307Z,15.70
2022-11-30T18:48:36.378Z,21.92
2022-11-30T18:51:25.833Z,19.00
2022-11-30T18:53:58.508Z,17.40
2022-11-30T18:56:28.824Z,17.95
2022-11-30T18:59:15.657Z,17.40
2022-11-30T19:01:42.987Z,15.63
2022-11-30T19:04:11.585Z,16.92
2022-11-30T19:06:41.104Z,16.95
2022-11-30T19:09:14.395Z,16.98
2022-11-30T19:11:42.568Z,16.10
2022-11-30T19:14:13.895Z,16.35
2022-11-30T19:16:41.284Z,16.52
2022-11-30T19:19:13.834Z,15.73
2022-11-30T19:21:44.551Z,13.55
2022-11-30T19:24:11.390Z,13.85
2022-11-30T19:26:40.111Z,15.93
2022-11-30T19:29:07.879Z,15.93
2022-11-30T19:31:34.710Z,16.75
2022-11-30T19:34:07.766Z,13.45
2022-11-30T19:36:37.710Z,13.07
2022-11-30T19:39:04.764Z,17.42
2022-11-30T19:41:31.595Z,17.05
2022-11-30T19:44:04.023Z,17.13
2022-11-30T19:46:33.224Z,17.10
2022-11-30T19:49:01.701Z,16.08
2022-11-30T19:51:30.427Z,15.90
2022-11-30T19:53:59.391Z,14.45
2022-11-30T19:56:28.883Z,17.60
2022-11-30T19:59:02.728Z,16.17
2022-11-30T20:01:31.928Z,20.15
2022-11-30T20:03:58.982Z,18.17
2022-11-30T20:06:30.617Z,17.83
2022-11-30T20:08:57.489Z,17.98
2022-11-30T20:11:24.936Z,18.80
2022-11-30T20:13:52.243Z,21.15
2022-11-30T20:16:22.145Z,19.67
2022-11-30T20:18:55.348Z,18.08
2022-11-30T20:21:28.490Z,18.10
2022-11-30T20:23:59.327Z,18.92
2022-11-30T20:26:33.114Z,15.77
2022-11-30T20:29:03.103Z,17.67
2022-11-30T20:31:32.165Z,27.27
2022-11-30T20:33:59.817Z,18.30
2022-11-30T20:36:26.992Z,17.88
2022-11-30T20:38:54.191Z,16.63
2022-11-30T20:41:24.367Z,16.80
2022-11-30T20:43:52.622Z,15.93
2022-11-30T20:46:28.974Z,22.17
2022-11-30T20:48:58.012Z,16.65
2022-11-30T20:51:31.270Z,18.95
2022-11-30T20:54:02.453Z,18.48
2022-11-30T20:56:29.510Z,16.70
2022-11-30T20:58:56.701Z,20.10
2022-11-30T21:01:24.240Z,18.08
2022-11-30T21:03:51.198Z,17.90
2022-11-30T21:06:17.960Z,19.05
2022-11-30T21:08:45.021Z,20.70
2022-11-30T21:11:15.293Z,19.05
2022-11-30T21:13:44.145Z,18.60
2022-11-30T21:16:13.256Z,18.52
2022-11-30T21:18:43.516Z,17.83
2022-11-30T21:21:17.230Z,15.82
2022-11-30T21:23:45.227Z,17.13
2022-11-30T21:26:27.884Z,18.13
2022-11-30T21:29:03.358Z,19.33
2022-11-30T21:31:31.255Z,19.50
2022-11-30T21:33:58.380Z,18.38
2022-11-30T21:36:25.273Z,19.95
2022-11-30T21:39:04.603Z,20.65
2022-11-30T21:41:36.654Z,18.65
2022-11-30T21:44:05.526Z,27.60
2022-11-30T21:46:32.504Z,24.05
2022-11-30T21:49:00.160Z,23.58
2022-11-30T21:51:29.878Z,19.88
2022-11-30T21:54:03.519Z,20.20
2022-11-30T21:56:35.011Z,21.75
2022-11-30T21:59:04.548Z,17.13
2022-11-30T22:01:35.670Z,19.88
2022-11-30T22:04:04.620Z,18.63
2022-11-30T22:06:34.044Z,19.48
2022-11-30T22:09:07.825Z,17.92
2022-11-30T22:11:41.364Z,20.33
2022-11-30T22:14:13.168Z,21.30
2022-11-30T22:16:40.277Z,19.75
2022-11-30T22:19:07.634Z,19.85
2022-11-30T22:21:35.399Z,21.63
2022-11-30T22:24:06.485Z,20.50
2022-11-30T22:26:39.195Z,22.48
2022-11-30T22:29:20.049Z,21.83
2022-11-30T22:31:49.905Z,21.67
2022-11-30T22:34:16.791Z,23.58
2022-11-30T22:36:45.587Z,21.85
2022-11-30T22:39:21.003Z,20.63
2022-11-30T22:41:55.273Z,25.48
2022-11-30T22:44:24.412Z,24.73
2022-11-30T22:46:51.268Z,23.40
2022-11-30T22:49:21.158Z,18.98
2022-11-30T22:51:49.008Z,22.15
2022-11-30T22:54:15.929Z,19.30
2022-11-30T22:56:42.863Z,23.48
2022-11-30T22:59:13.717Z,24.20
2022-11-30T23:01:46.811Z,20.73
2022-11-30T23:06:47.386Z,22.52
2022-11-30T23:09:20.394Z,23.63
2022-11-30T23:11:48.158Z,23.80
2022-11-30T23:14:16.304Z,23.60
2022-11-30T23:16:43.958Z,21.30
2022-11-30T23:19:12.408Z,23.55
2022-11-30T23:21:42.302Z,22.30
2022-11-30T23:24:17.307Z,23.35
2022-11-30T23:26:44.560Z,23.75
2022-11-30T23:29:14.821Z,24.02
2022-11-30T23:31:43.448Z,22.50
2022-11-30T23:34:17.836Z,24.50
2022-11-30T23:36:45.204Z,24.23
2022-11-30T23:39:16.377Z,24.10
2022-11-30T23:41:43.828Z,25.35
2022-11-30T23:44:12.154Z,19.90
2022-11-30T23:46:39.508Z,24.08
2022-11-30T23:49:06.807Z,21.17
2022-11-30T23:51:33.720Z,22.70
2022-11-30T23:54:00.463Z,24.85
2022-11-30T23:56:27.341Z,25.08
2022-11-30T23:58:54.111Z,23.38
